Home   Weather   India   Theni   Past weeks
Flag for India

Past Weather in Theni, Tamil Nadu, India — Yesterday and Last 2 Weeks

Currently: 75 °F. Fog. (Weather station: Coimbatore / Peelamedu, India). See more current weather

Past Weather in Theni — Graph

°F

Theni Temperature Yesterday

Maximum temperature yesterday: 88 °F (at 12:30 pm)
Minimum temperature yesterday: 75 °F (at 12:30 am)
Average temperature yesterday: 79 °F

High & Low Weather Summary for the Past Weeks

 TemperatureHumidityPressure
High91 °F (Jul 20, 12:30 pm)100% (Jul 16, 4:30 am)29.92 "Hg (Jul 16, 4:30 am)
Low72 °F (Jul 16, 6:30 am)41% (Jul 29, 1:30 pm)29.68 "Hg (Jul 23, 3:30 am)
Average80 °F75%29.82 "Hg
* Reported Jul 16 1:30 am — Jul 31 1:30 am, Theni. Weather by CustomWeather, © 2021

Note: Actual official high and low records may vary slightly from our data, if they occured in-between our weather recording intervals... More about our weather records

Theni Weather History for the Previous 24 Hours

Scroll right to see more
 ConditionsComfort  
Time TempWeatherWind HumidityBarometerVisibility
1:30 am
Sat, Jul 31
75 °FFog.9 mph89%29.89 "Hg3 mi
12:30 am75 °FFog.9 mph89%29.89 "Hg3 mi
11:30 pm
Fri, Jul 30
77 °FFog.9 mph83%29.92 "Hg3 mi
10:30 pm77 °FFog.10 mph83%29.92 "Hg3 mi
10:00 pm77 °FFog.10 mph89%29.92 "Hg3 mi
9:30 pm77 °FFog.10 mph89%29.92 "Hg3 mi
9:00 pm77 °FFog.16 mph83%29.89 "Hg3 mi
8:30 pm77 °FFog.14 mph83%29.89 "Hg3 mi
8:00 pm79 °FFog.10 mph79%29.89 "Hg3 mi
7:30 pm79 °FPassing clouds.12 mph79%29.86 "Hg4 mi
7:00 pm81 °FPassing clouds.15 mph74%29.86 "Hg4 mi
6:00 pm84 °FPassing clouds.8 mph62%29.83 "Hg4 mi
5:00 pm86 °FScattered clouds.14 mph59%29.83 "Hg4 mi
3:30 pm86 °FScattered clouds.12 mph62%29.83 "Hg4 mi
2:00 pm88 °FPassing clouds.24 mph55%29.86 "Hg4 mi
12:30 pm88 °FPassing clouds.8 mph55%29.89 "Hg4 mi
12:00 pm86 °FPassing clouds.8 mph59%29.89 "Hg4 mi
11:30 am84 °FPassing clouds.8 mph62%29.89 "Hg4 mi
11:00 am84 °FPassing clouds.12 mph62%29.92 "Hg4 mi
10:30 am82 °FPassing clouds.12 mph66%29.92 "Hg4 mi
10:00 am82 °FPassing clouds.9 mph62%29.92 "Hg4 mi
9:30 am81 °FHaze.8 mph70%29.92 "Hg3 mi
8:30 am77 °FFog.7 mph83%29.92 "Hg2 mi
7:30 am75 °FFog.7 mph83%29.89 "Hg2 mi
7:00 am75 °FFog.9 mph89%29.89 "Hg2 mi
6:30 am75 °FFog.9 mph89%29.89 "Hg2 mi
5:30 am75 °FFog.7 mph89%29.86 "Hg3 mi
5:00 am75 °FFog.6 mph89%29.86 "Hg3 mi
4:30 am75 °FFog.9 mph89%29.86 "Hg3 mi
4:00 am75 °FFog.7 mph89%29.86 "Hg3 mi
3:30 am75 °FFog.9 mph89%29.86 "Hg3 mi
3:00 am75 °FFog.9 mph89%29.86 "Hg3 mi
Weather by CustomWeather, © 2021

See weather overview